createdAt,value
2017-03-26T00:00:10.007Z,1007.35
2017-03-26T00:00:50.513Z,1007.45
2017-03-26T00:01:31.017Z,1007.42
2017-03-26T00:02:11.479Z,1007.45
2017-03-26T00:02:51.972Z,1007.47
2017-03-26T00:03:32.501Z,1007.45
2017-03-26T00:04:12.911Z,1007.6
2017-03-26T00:04:53.446Z,1007.43
2017-03-26T00:05:33.888Z,1007.48
2017-03-26T00:06:14.497Z,1007.5
2017-03-26T00:06:54.965Z,1007.42
2017-03-26T00:07:35.356Z,1007.38
2017-03-26T00:08:15.890Z,1007.36
2017-03-26T00:08:56.317Z,1007.36
2017-03-26T00:09:36.810Z,1007.38
2017-03-26T00:10:17.307Z,1007.41
2017-03-26T00:10:57.804Z,1007.37
2017-03-26T00:11:38.260Z,1007.33
2017-03-26T00:12:18.876Z,1007.32
2017-03-26T00:12:59.450Z,1007.37
2017-03-26T00:13:39.991Z,1007.33
2017-03-26T00:14:20.458Z,1007.36
2017-03-26T00:15:00.957Z,1007.36
2017-03-26T00:15:41.455Z,1007.46
2017-03-26T00:16:21.875Z,1007.45
2017-03-26T00:17:02.385Z,1007.48
2017-03-26T00:17:42.894Z,1007.39
2017-03-26T00:18:23.414Z,1007.43
2017-03-26T00:19:03.913Z,1007.46
2017-03-26T00:19:44.442Z,1007.41
2017-03-26T00:20:25.079Z,1007.39
2017-03-26T00:21:05.555Z,1007.43
2017-03-26T00:21:46.063Z,1007.36
2017-03-26T00:22:26.550Z,1007.42
2017-03-26T00:23:07.092Z,1007.35
2017-03-26T00:23:47.956Z,1007.35
2017-03-26T00:24:28.481Z,1007.38
2017-03-26T00:25:08.961Z,1007.33
2017-03-26T00:25:49.419Z,1007.32
2017-03-26T00:26:29.879Z,1007.36
2017-03-26T00:27:10.398Z,1007.4
2017-03-26T00:27:50.889Z,1007.37
2017-03-26T00:28:31.380Z,1007.47
2017-03-26T00:29:11.886Z,1007.32
2017-03-26T00:29:52.342Z,1007.35
2017-03-26T00:30:32.845Z,1007.32
2017-03-26T00:31:13.380Z,1007.31
2017-03-26T00:31:53.823Z,1007.33
2017-03-26T00:32:34.489Z,1007.29
2017-03-26T00:33:14.952Z,1007.32
2017-03-26T00:33:55.441Z,1007.36
2017-03-26T00:34:35.865Z,1007.3
2017-03-26T00:35:16.566Z,1007.34
2017-03-26T00:35:57.146Z,1007.34
2017-03-26T00:36:37.582Z,1007.32
2017-03-26T00:37:18.134Z,1007.31
2017-03-26T00:37:58.593Z,1007.29
2017-03-26T00:38:39.147Z,1007.24
2017-03-26T00:39:19.609Z,1007.25
2017-03-26T00:40:00.067Z,1007.28
2017-03-26T00:40:40.593Z,1007.21
2017-03-26T00:41:21.051Z,1007.24
2017-03-26T00:42:01.573Z,1007.24
2017-03-26T00:42:42.054Z,1007.23
2017-03-26T00:43:22.597Z,1007.21
2017-03-26T00:44:02.984Z,1007.19
2017-03-26T00:44:43.463Z,1007.28
2017-03-26T00:45:24.003Z,1007.27
2017-03-26T00:46:04.524Z,1007.23
2017-03-26T00:46:45.005Z,1007.3
2017-03-26T00:47:25.524Z,1007.3
2017-03-26T00:48:05.996Z,1007.28
2017-03-26T00:48:46.455Z,1007.27
2017-03-26T00:49:26.980Z,1007.26
2017-03-26T00:50:07.418Z,1007.29
2017-03-26T00:50:47.919Z,1007.3
2017-03-26T00:51:28.400Z,1007.34
2017-03-26T00:52:08.956Z,1007.33
2017-03-26T00:52:49.375Z,1007.29
2017-03-26T00:53:29.891Z,1007.26
2017-03-26T00:54:10.367Z,1007.25
2017-03-26T00:54:50.864Z,1007.24
2017-03-26T00:55:31.348Z,1007.22
2017-03-26T00:56:11.846Z,1007.42
2017-03-26T00:56:52.278Z,1007.24
2017-03-26T00:57:32.796Z,1007.2
2017-03-26T00:58:13.282Z,1007.26
2017-03-26T00:58:53.759Z,1007.28
2017-03-26T00:59:34.255Z,1007.27
2017-03-26T01:00:14.777Z,1007.22
2017-03-26T01:00:55.214Z,1007.26
2017-03-26T01:01:35.702Z,1007.3
2017-03-26T01:02:16.207Z,1007.25
2017-03-26T01:02:56.684Z,1007.21
2017-03-26T01:03:37.183Z,1007.22
2017-03-26T01:04:17.741Z,1007.2
2017-03-26T01:04:58.226Z,1007.16
2017-03-26T01:05:38.746Z,1007.25
2017-03-26T01:06:19.269Z,1007.27
2017-03-26T01:06:59.777Z,1007.38
2017-03-26T01:07:40.246Z,1007.21
2017-03-26T01:08:20.711Z,1007.25
2017-03-26T01:09:01.237Z,1007.25
2017-03-26T01:09:41.675Z,1007.25
2017-03-26T01:10:22.283Z,1007.18
2017-03-26T01:11:02.769Z,1007.21
2017-03-26T01:11:43.234Z,1007.21
2017-03-26T01:12:23.756Z,1007.12
2017-03-26T01:13:04.212Z,1007.13
2017-03-26T01:13:44.696Z,1007.16
2017-03-26T01:14:25.158Z,1007.22
2017-03-26T01:15:05.616Z,1007.21
2017-03-26T01:15:46.187Z,1007.19
2017-03-26T01:16:26.707Z,1007.18
2017-03-26T01:17:07.109Z,1007.22
2017-03-26T01:17:47.640Z,1007.26
2017-03-26T01:18:28.096Z,1007.2
2017-03-26T01:19:08.609Z,1007.19
2017-03-26T01:19:49.129Z,1007.18
2017-03-26T01:20:29.595Z,1007.13
2017-03-26T01:21:10.072Z,1007.2
2017-03-26T01:21:50.585Z,1007.11
2017-03-26T01:22:31.028Z,1007.11
2017-03-26T01:23:11.579Z,1007.02
2017-03-26T01:23:52.020Z,1007.07
2017-03-26T01:24:32.529Z,1007.1
2017-03-26T01:25:13.028Z,1007.07
2017-03-26T01:25:53.559Z,1007.06
2017-03-26T01:26:34.015Z,1007.07
2017-03-26T01:27:14.517Z,1007.04
2017-03-26T01:27:55.011Z,1007.08
2017-03-26T01:28:35.480Z,1007.05
2017-03-26T01:29:16.025Z,1007.03
2017-03-26T01:29:56.507Z,1007.07
2017-03-26T01:30:36.935Z,1007.11
2017-03-26T01:31:17.448Z,1007.11
2017-03-26T01:31:57.931Z,1007.1
2017-03-26T01:32:38.469Z,1007.15
2017-03-26T01:33:18.929Z,1007.17
2017-03-26T01:33:59.397Z,1007.17
2017-03-26T01:34:39.903Z,1007.19
2017-03-26T01:35:20.377Z,1007.17
2017-03-26T01:36:00.989Z,1007.16
2017-03-26T01:36:41.527Z,1007.18
2017-03-26T01:37:22.000Z,1007.17
2017-03-26T01:38:02.429Z,1007.21
2017-03-26T01:38:42.877Z,1007.23
2017-03-26T01:39:23.364Z,1007.17
2017-03-26T01:40:03.868Z,1007.3
2017-03-26T01:40:44.356Z,1007.14
2017-03-26T01:41:24.839Z,1007.11
2017-03-26T01:42:05.298Z,1007.1
2017-03-26T01:42:45.865Z,1007.1
2017-03-26T01:43:26.345Z,1007.17
2017-03-26T01:44:06.821Z,1007.22
2017-03-26T01:44:47.382Z,1007.17
2017-03-26T01:45:27.798Z,1007.25
2017-03-26T01:46:08.298Z,1007.23
2017-03-26T01:46:48.851Z,1007.23
2017-03-26T01:47:29.284Z,1007.21
2017-03-26T01:48:09.733Z,1007.14
2017-03-26T01:48:50.214Z,1007.14
2017-03-26T01:49:30.741Z,1007.15
2017-03-26T01:50:11.240Z,1007.19
2017-03-26T01:50:51.682Z,1007.18
2017-03-26T01:51:32.163Z,1007.18
2017-03-26T01:52:12.720Z,1007.17
2017-03-26T01:52:53.263Z,1007.17
2017-03-26T01:53:33.690Z,1007.2
2017-03-26T01:54:14.211Z,1007.16
2017-03-26T01:54:54.727Z,1007.14
2017-03-26T01:55:35.198Z,1007.18
2017-03-26T01:56:15.719Z,1007.14
2017-03-26T01:56:56.199Z,1007.18
2017-03-26T01:57:36.687Z,1007.16
2017-03-26T01:58:17.168Z,1007.19
2017-03-26T01:58:57.651Z,1007.14
2017-03-26T01:59:38.140Z,1007.18
2017-03-26T02:00:18.595Z,1007.2
2017-03-26T02:00:59.088Z,1007.15
2017-03-26T02:01:42.386Z,1007.16
2017-03-26T02:02:22.894Z,1007.21
2017-03-26T02:03:03.471Z,1007.21
2017-03-26T02:03:43.926Z,1007.25
2017-03-26T02:04:24.415Z,1007.2
2017-03-26T02:05:04.921Z,1007.19
2017-03-26T02:05:45.459Z,1007.2
2017-03-26T02:06:25.947Z,1007.21
2017-03-26T02:07:06.541Z,1007.2
2017-03-26T02:07:47.024Z,1007.22
2017-03-26T02:08:27.550Z,1007.25
2017-03-26T02:09:07.981Z,1007.24
2017-03-26T02:09:48.492Z,1007.26
2017-03-26T02:10:29.033Z,1007.2
2017-03-26T02:11:09.537Z,1007.24
2017-03-26T02:11:49.958Z,1007.14
2017-03-26T02:12:30.426Z,1007.17
2017-03-26T02:13:10.921Z,1007.21
2017-03-26T02:13:51.496Z,1007.19
2017-03-26T02:14:31.864Z,1007.19
2017-03-26T02:15:12.398Z,1007.2
2017-03-26T02:15:52.838Z,1007.22
2017-03-26T02:16:33.310Z,1007.21
2017-03-26T02:17:13.833Z,1007.14
2017-03-26T02:17:54.295Z,1007.17
2017-03-26T02:18:34.770Z,1007.18
2017-03-26T02:19:15.260Z,1007.16
2017-03-26T02:19:55.816Z,1007.19
2017-03-26T02:20:36.255Z,1007.18
2017-03-26T02:21:16.731Z,1007.19
2017-03-26T02:21:57.237Z,1007.26
2017-03-26T02:22:37.735Z,1007.26
2017-03-26T02:23:18.229Z,1007.21
2017-03-26T02:23:58.721Z,1007.27
2017-03-26T02:24:39.232Z,1007.22
2017-03-26T02:25:19.696Z,1007.18
2017-03-26T02:26:00.177Z,1007.23
2017-03-26T02:26:40.723Z,1007.23
2017-03-26T02:27:21.218Z,1007.22
2017-03-26T02:28:01.706Z,1007.25
2017-03-26T02:28:42.218Z,1007.23
2017-03-26T02:29:22.684Z,1007.21
2017-03-26T02:30:03.178Z,1007.22
2017-03-26T02:30:43.660Z,1007.25
2017-03-26T02:31:24.177Z,1007.22
2017-03-26T02:32:04.618Z,1007.21
2017-03-26T02:32:45.140Z,1007.22
2017-03-26T02:33:25.633Z,1007.22
2017-03-26T02:34:06.109Z,1007.22
2017-03-26T02:34:46.587Z,1007.19
2017-03-26T02:35:27.059Z,1007.22
2017-03-26T02:36:07.529Z,1007.22
2017-03-26T02:36:48.045Z,1007.22
2017-03-26T02:37:28.501Z,1007.25
2017-03-26T02:38:09.056Z,1007.23
2017-03-26T02:38:49.527Z,1007.2
2017-03-26T02:39:30.041Z,1007.26
2017-03-26T02:40:10.527Z,1007.21
2017-03-26T02:40:50.989Z,1007.24
2017-03-26T02:41:31.485Z,1007.2
2017-03-26T02:42:11.976Z,1007.17
2017-03-26T02:42:52.496Z,1007.19
2017-03-26T02:43:32.993Z,1007.21
2017-03-26T02:44:13.445Z,1007.19
2017-03-26T02:44:53.941Z,1007.18
2017-03-26T02:45:34.520Z,1007.18
2017-03-26T02:46:14.945Z,1007.22
2017-03-26T02:46:55.419Z,1007.21
2017-03-26T02:47:35.922Z,1007.2
2017-03-26T02:48:16.385Z,1007.2
2017-03-26T02:48:56.844Z,1007.18
2017-03-26T02:49:37.528Z,1007.15
2017-03-26T02:50:18.061Z,1007.17
2017-03-26T02:50:58.538Z,1007.16
2017-03-26T02:51:39.043Z,1007.18
2017-03-26T02:52:19.558Z,1007.21
2017-03-26T02:53:00.023Z,1007.18
2017-03-26T02:53:40.513Z,1007.19
2017-03-26T02:54:21.018Z,1007.21
2017-03-26T02:55:01.479Z,1007.22
2017-03-26T02:55:41.971Z,1007.19
2017-03-26T02:56:22.496Z,1007.19
2017-03-26T02:57:02.932Z,1007.26
2017-03-26T02:57:43.442Z,1007.26
2017-03-26T02:58:23.952Z,1007.26
2017-03-26T02:59:04.488Z,1007.22
2017-03-26T02:59:44.970Z,1007.19
2017-03-26T03:00:25.424Z,1007.28
2017-03-26T03:01:05.936Z,1007.28
2017-03-26T03:01:46.424Z,1007.3
2017-03-26T03:02:26.957Z,1007.35
2017-03-26T03:03:07.401Z,1007.38
2017-03-26T03:03:47.882Z,1007.33
2017-03-26T03:04:28.363Z,1007.41
2017-03-26T03:05:08.866Z,1007.43
2017-03-26T03:05:49.418Z,1007.43
2017-03-26T03:06:29.925Z,1007.4
2017-03-26T03:07:10.378Z,1007.48
2017-03-26T03:07:50.892Z,1007.51
2017-03-26T03:08:31.359Z,1007.58
2017-03-26T03:09:11.834Z,1007.47
2017-03-26T03:09:52.364Z,1007.51
2017-03-26T03:10:32.824Z,1007.55
2017-03-26T03:11:13.261Z,1007.5
2017-03-26T03:11:53.734Z,1007.47
2017-03-26T03:12:34.367Z,1007.53
2017-03-26T03:13:14.882Z,1007.5
2017-03-26T03:13:55.380Z,1007.48
2017-03-26T03:14:35.916Z,1007.53
2017-03-26T03:15:16.375Z,1007.51
2017-03-26T03:15:56.872Z,1007.55
2017-03-26T03:16:37.378Z,1007.57
2017-03-26T03:17:17.873Z,1007.57
2017-03-26T03:17:58.329Z,1007.58
2017-03-26T03:18:38.822Z,1007.52
2017-03-26T03:19:19.278Z,1007.56
2017-03-26T03:19:59.740Z,1007.55
2017-03-26T03:20:40.274Z,1007.65
2017-03-26T03:21:20.717Z,1007.63
2017-03-26T03:22:01.211Z,1007.66
2017-03-26T03:22:41.714Z,1007.62
2017-03-26T03:23:22.162Z,1007.63
2017-03-26T03:24:03.586Z,1007.65
2017-03-26T03:24:44.103Z,1007.65
2017-03-26T03:25:24.584Z,1007.64
2017-03-26T03:26:05.098Z,1007.66
2017-03-26T03:26:45.552Z,1007.66
2017-03-26T03:27:26.045Z,1007.66
2017-03-26T03:28:06.529Z,1007.63
2017-03-26T03:28:47.015Z,1007.7
2017-03-26T03:29:27.492Z,1007.66
2017-03-26T03:30:07.984Z,1007.67
2017-03-26T03:30:48.464Z,1007.68
2017-03-26T03:31:28.989Z,1007.64
2017-03-26T03:32:09.485Z,1007.7
2017-03-26T03:32:49.937Z,1007.71
2017-03-26T03:33:30.405Z,1007.79
2017-03-26T03:34:10.888Z,1007.74
2017-03-26T03:34:51.369Z,1007.72
2017-03-26T03:35:31.917Z,1007.76
2017-03-26T03:36:12.367Z,1007.77
2017-03-26T03:36:52.837Z,1007.79
2017-03-26T03:37:33.322Z,1007.82
2017-03-26T03:38:13.828Z,1007.78
2017-03-26T03:38:54.345Z,1007.85
2017-03-26T03:39:34.867Z,1007.71
2017-03-26T03:40:15.323Z,1007.75
2017-03-26T03:40:55.810Z,1007.75
2017-03-26T03:41:36.366Z,1007.72
2017-03-26T03:42:16.799Z,1007.7
2017-03-26T03:42:57.317Z,1007.76
2017-03-26T03:43:37.786Z,1007.69
2017-03-26T03:44:18.274Z,1007.7
2017-03-26T03:44:58.747Z,1007.66
2017-03-26T03:45:39.328Z,1007.68
2017-03-26T03:46:19.719Z,1007.67
2017-03-26T03:47:00.245Z,1007.69
2017-03-26T03:47:40.697Z,1007.61
2017-03-26T03:48:21.213Z,1007.59
2017-03-26T03:49:01.665Z,1007.58
2017-03-26T03:49:42.164Z,1007.5
2017-03-26T03:50:22.649Z,1007.57
2017-03-26T03:51:03.123Z,1007.59
2017-03-26T03:51:43.626Z,1007.63
2017-03-26T03:52:24.095Z,1007.6
2017-03-26T03:53:04.593Z,1007.6
2017-03-26T03:53:45.071Z,1007.66
2017-03-26T03:54:25.561Z,1007.69
2017-03-26T03:55:06.039Z,1007.71
2017-03-26T03:55:46.546Z,1007.66
2017-03-26T03:56:27.035Z,1007.68
2017-03-26T03:57:07.486Z,1007.71
2017-03-26T03:57:47.940Z,1007.71
2017-03-26T03:58:28.437Z,1007.65
2017-03-26T03:59:08.951Z,1007.71
2017-03-26T03:59:49.398Z,1007.72
2017-03-26T04:00:29.921Z,1007.79
2017-03-26T04:01:10.471Z,1007.78
2017-03-26T04:01:50.917Z,1007.8
2017-03-26T04:02:31.358Z,1007.79
2017-03-26T04:03:11.870Z,1007.82
2017-03-26T04:03:52.367Z,1007.76
2017-03-26T04:04:32.850Z,1007.8
2017-03-26T04:05:13.326Z,1007.83
2017-03-26T04:05:53.765Z,1007.84
2017-03-26T04:06:34.303Z,1007.84
2017-03-26T04:07:14.810Z,1007.91
2017-03-26T04:07:55.269Z,1007.87
2017-03-26T04:08:35.790Z,1007.88
2017-03-26T04:09:16.262Z,1007.92
2017-03-26T04:09:56.710Z,1007.9
2017-03-26T04:10:37.197Z,1007.94
2017-03-26T04:11:17.663Z,1007.98
2017-03-26T04:11:58.154Z,1007.92
2017-03-26T04:12:38.623Z,1007.97
2017-03-26T04:13:19.089Z,1007.98
2017-03-26T04:13:59.630Z,1008.03
2017-03-26T04:14:40.084Z,1008.04
2017-03-26T04:15:20.541Z,1008.05
2017-03-26T04:16:01.067Z,1008.02
2017-03-26T04:16:41.527Z,1008
2017-03-26T04:17:21.983Z,1008.01
2017-03-26T04:18:02.535Z,1008.02
2017-03-26T04:18:42.977Z,1008.03
2017-03-26T04:19:23.474Z,1007.97
2017-03-26T04:20:03.963Z,1008.02
2017-03-26T04:20:44.461Z,1008.03
2017-03-26T04:21:24.958Z,1008.06
2017-03-26T04:22:05.522Z,1008.09
2017-03-26T04:22:45.956Z,1008.09
2017-03-26T04:23:26.462Z,1008.1
2017-03-26T04:24:06.918Z,1008.03
2017-03-26T04:24:47.436Z,1008.1
2017-03-26T04:25:27.909Z,1008.09
2017-03-26T04:26:08.391Z,1008.14
2017-03-26T04:26:48.878Z,1008.13
2017-03-26T04:27:29.390Z,1008.21
2017-03-26T04:28:09.955Z,1008.26
2017-03-26T04:28:50.379Z,1008.29
2017-03-26T04:29:30.866Z,1008.19
2017-03-26T04:30:11.344Z,1008.19
2017-03-26T04:30:51.831Z,1008.17
2017-03-26T04:31:32.332Z,1008.16
2017-03-26T04:32:12.786Z,1008.24
2017-03-26T04:32:53.313Z,1008.14
2017-03-26T04:33:33.815Z,1008.19
2017-03-26T04:34:14.316Z,1008.21
2017-03-26T04:34:54.779Z,1008.19
2017-03-26T04:35:35.266Z,1008.23
2017-03-26T04:36:15.728Z,1008.24
2017-03-26T04:36:56.177Z,1008.25
2017-03-26T04:37:36.684Z,1008.3
2017-03-26T04:38:17.125Z,1008.3
2017-03-26T04:38:57.627Z,1008.28
2017-03-26T04:39:38.107Z,1008.34
2017-03-26T04:40:18.643Z,1008.39
2017-03-26T04:40:59.098Z,1008.36
2017-03-26T04:41:39.571Z,1008.39
2017-03-26T04:42:20.046Z,1008.33
2017-03-26T04:43:00.735Z,1008.35
2017-03-26T04:43:41.244Z,1008.32
2017-03-26T04:44:21.721Z,1008.3
2017-03-26T04:45:02.219Z,1008.29
2017-03-26T04:45:42.703Z,1008.29
2017-03-26T04:46:23.197Z,1008.29
2017-03-26T04:47:03.680Z,1008.33
2017-03-26T04:47:44.136Z,1008.27
2017-03-26T04:48:24.611Z,1008.3
2017-03-26T04:49:05.057Z,1008.29
2017-03-26T04:49:45.527Z,1008.32
2017-03-26T04:50:26.036Z,1008.31
2017-03-26T04:51:06.532Z,1008.22
2017-03-26T04:51:47.004Z,1008.24
2017-03-26T04:52:27.476Z,1008.27
2017-03-26T04:53:07.972Z,1008.26
2017-03-26T04:53:48.433Z,1008.25
2017-03-26T04:54:28.922Z,1008.23
2017-03-26T04:55:09.403Z,1008.27
2017-03-26T04:55:49.856Z,1008.24
2017-03-26T04:56:30.356Z,1008.27
2017-03-26T04:57:10.832Z,1008.24
2017-03-26T04:57:51.335Z,1008.28
2017-03-26T04:58:31.869Z,1008.31
2017-03-26T04:59:12.371Z,1008.32
2017-03-26T04:59:52.844Z,1008.3
2017-03-26T05:00:33.328Z,1008.31
2017-03-26T05:01:13.825Z,1008.32
2017-03-26T05:01:54.279Z,1008.31
2017-03-26T05:02:34.751Z,1008.34
2017-03-26T05:03:15.208Z,1008.36
2017-03-26T05:03:55.701Z,1008.36
2017-03-26T05:04:36.152Z,1008.36
2017-03-26T05:05:16.686Z,1008.31
2017-03-26T05:05:57.163Z,1008.38
2017-03-26T05:06:37.644Z,1008.35
2017-03-26T05:07:18.096Z,1008.36
2017-03-26T05:07:58.598Z,1008.37
2017-03-26T05:08:39.122Z,1008.29
2017-03-26T05:09:19.576Z,1008.35
2017-03-26T05:10:00.121Z,1008.29
2017-03-26T05:10:40.598Z,1008.3
2017-03-26T05:11:21.109Z,1008.35
2017-03-26T05:12:01.594Z,1008.33
2017-03-26T05:12:42.101Z,1008.35
2017-03-26T05:13:22.569Z,1008.38
2017-03-26T05:14:03.096Z,1008.34
2017-03-26T05:14:43.593Z,1008.35
2017-03-26T05:15:24.098Z,1008.37
2017-03-26T05:16:04.547Z,1008.39
2017-03-26T05:16:45.007Z,1008.44
2017-03-26T05:17:25.539Z,1008.43
2017-03-26T05:18:06.031Z,1008.42
2017-03-26T05:18:46.502Z,1008.46
2017-03-26T05:19:26.971Z,1008.44
2017-03-26T05:20:07.445Z,1008.48
2017-03-26T05:20:47.932Z,1008.41
2017-03-26T05:21:28.401Z,1008.44
2017-03-26T05:22:08.944Z,1008.5
2017-03-26T05:22:49.387Z,1008.48
2017-03-26T05:23:29.918Z,1008.49
2017-03-26T05:24:10.355Z,1008.5
2017-03-26T05:24:50.841Z,1008.55
2017-03-26T05:25:31.351Z,1008.48
2017-03-26T05:26:11.919Z,1008.54
2017-03-26T05:26:52.470Z,1008.52
2017-03-26T05:27:32.906Z,1008.5
2017-03-26T05:28:13.372Z,1008.54
2017-03-26T05:28:53.901Z,1008.53
2017-03-26T05:29:34.344Z,1008.59
2017-03-26T05:30:14.859Z,1008.59
2017-03-26T05:30:55.351Z,1008.64
2017-03-26T05:31:35.810Z,1008.67
2017-03-26T05:32:16.364Z,1008.65
2017-03-26T05:32:56.805Z,1008.68
2017-03-26T05:33:37.285Z,1008.7
2017-03-26T05:34:17.749Z,1008.72
2017-03-26T05:34:58.245Z,1008.67
2017-03-26T05:35:38.760Z,1008.64
2017-03-26T05:36:19.250Z,1008.68
2017-03-26T05:36:59.797Z,1008.69
2017-03-26T05:37:40.316Z,1008.71
2017-03-26T05:38:20.704Z,1008.73
2017-03-26T05:39:01.229Z,1008.73
2017-03-26T05:39:41.726Z,1008.77
2017-03-26T05:40:22.187Z,1008.74
2017-03-26T05:41:02.679Z,1008.78
2017-03-26T05:41:43.171Z,1008.77
2017-03-26T05:42:23.690Z,1008.8
2017-03-26T05:43:04.162Z,1008.85
2017-03-26T05:43:44.653Z,1008.82
2017-03-26T05:44:25.207Z,1008.83
2017-03-26T05:45:05.641Z,1008.87
2017-03-26T05:45:46.170Z,1008.87
2017-03-26T05:46:26.628Z,1008.84
2017-03-26T05:47:07.071Z,1008.85
2017-03-26T05:47:47.567Z,1008.92
2017-03-26T05:48:28.047Z,1008.92
2017-03-26T05:49:08.527Z,1008.94
2017-03-26T05:49:48.975Z,1008.95
2017-03-26T05:50:29.450Z,1008.99
2017-03-26T05:51:09.960Z,1008.97
2017-03-26T05:51:50.409Z,1008.94
2017-03-26T05:52:30.966Z,1008.94
2017-03-26T05:53:11.387Z,1008.96
2017-03-26T05:53:51.880Z,1008.97
2017-03-26T05:54:32.362Z,1008.97
2017-03-26T05:55:12.866Z,1008.99
2017-03-26T05:55:53.335Z,1009.04
2017-03-26T05:56:33.833Z,1009.05
2017-03-26T05:57:14.311Z,1009.02
2017-03-26T05:57:54.832Z,1009.06
2017-03-26T05:58:35.278Z,1009.03
2017-03-26T05:59:15.761Z,1009.08
2017-03-26T05:59:56.227Z,1009.08
2017-03-26T06:00:36.698Z,1009.12
2017-03-26T06:01:17.147Z,1009.09
2017-03-26T06:01:57.631Z,1009.13
2017-03-26T06:02:38.177Z,1009.13
2017-03-26T06:03:18.619Z,1009.17
2017-03-26T06:03:59.116Z,1009.17
2017-03-26T06:04:39.635Z,1009.1
2017-03-26T06:05:20.116Z,1009.12
2017-03-26T06:06:00.623Z,1009.1
2017-03-26T06:06:41.167Z,1009.09
2017-03-26T06:07:21.645Z,1009.08
2017-03-26T06:08:02.121Z,1009.12
2017-03-26T06:08:42.599Z,1009.14
2017-03-26T06:09:23.082Z,1009.16
2017-03-26T06:10:03.581Z,1009.15
2017-03-26T06:10:44.112Z,1009.16
2017-03-26T06:11:24.597Z,1009.11
2017-03-26T06:12:05.192Z,1009.14
2017-03-26T06:12:45.743Z,1009.2
2017-03-26T06:13:26.250Z,1009.14
2017-03-26T06:14:06.680Z,1009.19
2017-03-26T06:14:47.218Z,1009.2
2017-03-26T06:15:27.650Z,1009.23
2017-03-26T06:16:08.230Z,1009.18
2017-03-26T06:16:48.675Z,1009.21
2017-03-26T06:17:29.214Z,1009.27
2017-03-26T06:18:09.711Z,1009.22
2017-03-26T06:18:50.162Z,1009.23
2017-03-26T06:19:30.644Z,1009.24
2017-03-26T06:20:11.109Z,1009.23
2017-03-26T06:20:51.629Z,1009.21
2017-03-26T06:21:32.166Z,1009.29
2017-03-26T06:22:12.568Z,1009.22
2017-03-26T06:22:53.024Z,1009.28
2017-03-26T06:23:33.533Z,1009.3
2017-03-26T06:24:14.049Z,1009.3
2017-03-26T06:24:54.562Z,1009.3
2017-03-26T06:25:35.014Z,1009.3
2017-03-26T06:26:15.600Z,1009.28
2017-03-26T06:26:56.048Z,1009.34
2017-03-26T06:27:36.532Z,1009.34
2017-03-26T06:28:17.011Z,1009.35
2017-03-26T06:28:57.514Z,1009.33
2017-03-26T06:29:37.980Z,1009.35
2017-03-26T06:30:18.505Z,1009.35
2017-03-26T06:30:59.003Z,1009.29
2017-03-26T06:31:39.455Z,1009.35
2017-03-26T06:32:19.954Z,1009.29
2017-03-26T06:33:00.424Z,1009.35
2017-03-26T06:33:40.974Z,1009.32
2017-03-26T06:34:21.453Z,1009.3
2017-03-26T06:35:01.993Z,1009.35
2017-03-26T06:35:42.533Z,1009.34
2017-03-26T06:36:23.076Z,1009.38
2017-03-26T06:37:03.596Z,1009.33
2017-03-26T06:37:44.214Z,1009.36
2017-03-26T06:38:24.717Z,1009.34
2017-03-26T06:39:05.233Z,1009.33
2017-03-26T06:39:45.725Z,1009.33
2017-03-26T06:40:26.200Z,1009.32
2017-03-26T06:41:06.653Z,1009.28
2017-03-26T06:41:47.145Z,1009.32
2017-03-26T06:42:27.625Z,1009.4
2017-03-26T06:43:08.144Z,1009.36
2017-03-26T06:43:48.615Z,1009.38
2017-03-26T06:44:29.114Z,1009.35
2017-03-26T06:45:09.621Z,1009.39
2017-03-26T06:45:50.079Z,1009.37
2017-03-26T06:46:30.587Z,1009.39
2017-03-26T06:47:11.055Z,1009.32
2017-03-26T06:47:51.561Z,1009.31
2017-03-26T06:48:32.031Z,1009.29
2017-03-26T06:49:12.577Z,1009.29
2017-03-26T06:49:53.028Z,1009.25
2017-03-26T06:50:33.506Z,1009.24
2017-03-26T06:51:13.921Z,1009.2
2017-03-26T06:51:54.455Z,1009.2
2017-03-26T06:52:34.942Z,1009.27
2017-03-26T06:53:15.428Z,1009.25
2017-03-26T06:53:55.921Z,1009.29
2017-03-26T06:54:36.378Z,1009.28
2017-03-26T06:55:16.895Z,1009.26
2017-03-26T06:55:57.357Z,1009.26
2017-03-26T06:56:37.855Z,1009.25
2017-03-26T06:57:18.319Z,1009.28
2017-03-26T06:57:58.825Z,1009.26
2017-03-26T06:58:39.300Z,1009.25
2017-03-26T06:59:19.834Z,1009.24
2017-03-26T07:00:00.319Z,1009.23
2017-03-26T07:00:40.791Z,1009.25
2017-03-26T07:01:21.238Z,1009.23
2017-03-26T07:02:01.786Z,1009.24
2017-03-26T07:02:42.273Z,1009.32
2017-03-26T07:03:22.759Z,1009.36
2017-03-26T07:04:03.394Z,1009.36
2017-03-26T07:04:43.936Z,1009.38
2017-03-26T07:05:24.466Z,1009.35
2017-03-26T07:06:04.936Z,1009.38
2017-03-26T07:06:45.393Z,1009.39
2017-03-26T07:07:25.896Z,1009.43
2017-03-26T07:08:06.967Z,1009.41
2017-03-26T07:08:47.461Z,1009.47
2017-03-26T07:09:28.040Z,1009.4
2017-03-26T07:10:08.513Z,1009.45
2017-03-26T07:10:49.039Z,1009.46
2017-03-26T07:11:29.500Z,1009.49
2017-03-26T07:12:10.708Z,1009.5
2017-03-26T07:12:51.204Z,1009.47
2017-03-26T07:13:31.713Z,1009.46
2017-03-26T07:14:12.129Z,1009.51
2017-03-26T07:14:52.660Z,1009.54
2017-03-26T07:15:33.156Z,1009.55
2017-03-26T07:16:13.626Z,1009.55
2017-03-26T07:16:54.154Z,1009.53
2017-03-26T07:17:34.604Z,1009.56
2017-03-26T07:18:15.163Z,1009.65
2017-03-26T07:18:55.613Z,1009.53
2017-03-26T07:19:36.119Z,1009.56
2017-03-26T07:20:16.624Z,1009.52
2017-03-26T07:20:57.098Z,1009.49
2017-03-26T07:21:37.698Z,1009.44
2017-03-26T07:22:18.335Z,1009.44
2017-03-26T07:22:58.762Z,1009.44
2017-03-26T07:23:39.229Z,1009.44
2017-03-26T07:24:19.769Z,1009.46
2017-03-26T07:25:00.243Z,1009.47
2017-03-26T07:25:40.729Z,1009.51
2017-03-26T07:26:21.188Z,1009.46
2017-03-26T07:27:01.662Z,1009.44
2017-03-26T07:27:42.163Z,1009.49
2017-03-26T07:28:22.706Z,1009.53
2017-03-26T07:29:03.145Z,1009.52
2017-03-26T07:29:44.087Z,1009.52
2017-03-26T07:30:24.547Z,1009.51
2017-03-26T07:31:05.050Z,1009.51
2017-03-26T07:31:45.553Z,1009.48
2017-03-26T07:32:26.006Z,1009.52
2017-03-26T07:33:06.540Z,1009.53
2017-03-26T07:33:47.036Z,1009.55
2017-03-26T07:34:27.535Z,1009.51
2017-03-26T07:35:08.038Z,1009.57
2017-03-26T07:35:48.583Z,1009.56
2017-03-26T07:36:28.996Z,1009.64
2017-03-26T07:37:09.496Z,1009.57
2017-03-26T07:37:49.951Z,1009.59
2017-03-26T07:38:30.442Z,1009.63
2017-03-26T07:39:10.987Z,1009.59
2017-03-26T07:39:51.477Z,1009.61
2017-03-26T07:40:32.023Z,1009.61
2017-03-26T07:41:12.517Z,1009.61
2017-03-26T07:41:53.106Z,1009.62
2017-03-26T07:42:33.569Z,1009.64
2017-03-26T07:43:14.070Z,1009.62
2017-03-26T07:43:54.516Z,1009.6
2017-03-26T07:44:35.058Z,1009.59
2017-03-26T07:45:15.613Z,1009.57
2017-03-26T07:45:56.065Z,1009.58
2017-03-26T07:46:36.508Z,1009.55
2017-03-26T07:47:17.247Z,1009.56
2017-03-26T07:47:57.780Z,1009.58
2017-03-26T07:48:38.235Z,1009.54
2017-03-26T07:49:18.701Z,1009.64
2017-03-26T07:49:59.165Z,1009.59
2017-03-26T07:50:39.704Z,1009.59
2017-03-26T07:51:20.199Z,1009.62
2017-03-26T07:52:00.670Z,1009.58
2017-03-26T07:52:41.154Z,1009.56
2017-03-26T07:53:21.663Z,1009.58
2017-03-26T07:54:02.156Z,1009.56
2017-03-26T07:54:42.724Z,1009.59
2017-03-26T07:58:23.542Z,1009.51
2017-03-26T07:59:03.794Z,1009.57
2017-03-26T07:59:44.289Z,1009.45
2017-03-26T08:00:24.789Z,1009.45
2017-03-26T08:01:05.385Z,1009.46
2017-03-26T08:01:46.236Z,1009.46
2017-03-26T08:02:26.333Z,1009.48
2017-03-26T08:03:07.234Z,1009.39
2017-03-26T08:03:47.802Z,1009.36
2017-03-26T08:04:28.292Z,1009.41
2017-03-26T08:05:08.805Z,1009.4
2017-03-26T08:05:49.257Z,1009.34
2017-03-26T08:08:17.380Z,1009.41
2017-03-26T08:12:11.423Z,1009.48
2017-03-26T08:14:22.972Z,1009.49
2017-03-26T08:22:03.115Z,1009.59
2017-03-26T08:23:48.061Z,1009.54
2017-03-26T08:24:45.023Z,1009.56
2017-03-26T08:26:43.612Z,1009.63
2017-03-26T08:32:04.928Z,1009.63
2017-03-26T08:38:58.703Z,1009.64
2017-03-26T08:44:43.219Z,1009.77
2017-03-26T08:45:36.816Z,1009.79
2017-03-26T08:47:31.429Z,1009.86
2017-03-26T08:49:54.831Z,1009.91